Station History


Daily Summary for January 25, 2012 Units:  English    Metric   Both
« Previous Day
Next Day »
Daily Weekly Monthly Yearly Custom
  High: Low: Average:
Temperature: 63.2 °F 37.1 °F 47.9 °F
Dew Point: 50.6 °F 36.2 °F 43.9 °F
Humidity: 98% 59% 87%
Wind Speed: 4.0mph 0.0mph 1.8mph
Wind Gust: 4.0mph - -
Wind- - WSW
Pressure: 30.45 in 30.33 in -
Precipitation: 0.00 in    
Historical Graphs
 
 
Tabular Data for January 25, 2012
Time Temperature Dew Point Pressure Wind Wind Speed Wind Gust Humidity Rainfall Rate (Hourly)
00:02 41.5 °F 40.4 °F 30.42 in Calm     96% 0.00 in
00:07 41.3 °F 40.2 °F 30.42 in Calm     96% 0.00 in
00:12 41.3 °F 40.2 °F 30.42 in Calm     96% 0.00 in
00:17 41.2 °F 40.1 °F 30.42 in Calm     96% 0.00 in
00:22 41.2 °F 40.1 °F 30.42 in Calm     96% 0.00 in
00:27 41.1 °F 40.0 °F 30.42 in Calm     96% 0.00 in
00:32 41.3 °F 40.2 °F 30.42 in Calm     96% 0.00 in
00:37 41.3 °F 40.2 °F 30.42 in Calm     96% 0.00 in
00:42 41.5 °F 40.4 °F 30.42 in Calm     96% 0.00 in
00:47 41.5 °F 40.4 °F 30.42 in Calm     96% 0.00 in
00:52 41.3 °F 40.2 °F 30.42 in Calm     96% 0.00 in
00:57 41.2 °F 40.1 °F 30.42 in Calm     96% 0.00 in
01:02 41.1 °F 40.0 °F 30.42 in Calm     96% 0.00 in
01:07 41.1 °F 40.0 °F 30.42 in Calm     96% 0.00 in
01:12 41.1 °F 40.0 °F 30.42 in Calm     96% 0.00 in
01:17 41.3 °F 40.5 °F 30.42 in Calm     97% 0.00 in
01:22 41.2 °F 40.4 °F 30.42 in Calm     97% 0.00 in
01:27 40.9 °F 39.8 °F 30.42 in Calm     96% 0.00 in
01:32 40.6 °F 39.5 °F 30.42 in Calm     96% 0.00 in
01:37 40.4 °F 39.4 °F 30.42 in Calm     96% 0.00 in
01:42 40.4 °F 39.4 °F 30.42 in Calm     96% 0.00 in
01:47 40.3 °F 39.3 °F 30.42 in Calm     96% 0.00 in
01:52 40.1 °F 39.1 °F 30.42 in Calm     96% 0.00 in
01:57 40.1 °F 39.1 °F 30.42 in Calm     96% 0.00 in
02:02 40.1 °F 39.1 °F 30.42 in Calm     96% 0.00 in
02:07 40.0 °F 39.0 °F 30.42 in Calm     96% 0.00 in
02:12 39.8 °F 38.8 °F 30.42 in Calm     96% 0.00 in
02:17 39.7 °F 38.7 °F 30.43 in Calm     96% 0.00 in
02:22 39.8 °F 38.8 °F 30.43 in Calm     96% 0.00 in
02:27 39.8 °F 38.8 °F 30.43 in Calm     96% 0.00 in
02:32 39.9 °F 38.9 °F 30.43 in Calm     96% 0.00 in
02:37 39.7 °F 38.7 °F 30.43 in Calm     96% 0.00 in
02:42 39.4 °F 38.4 °F 30.43 in Calm     96% 0.00 in
02:47 39.3 °F 38.3 °F 30.43 in Calm     96% 0.00 in
02:52 39.2 °F 38.2 °F 30.43 in Calm     96% 0.00 in
02:57 39.1 °F 38.1 °F 30.42 in Calm     96% 0.00 in
03:02 39.1 °F 38.1 °F 30.42 in Calm     96% 0.00 in
03:07 39.0 °F 38.0 °F 30.42 in Calm     96% 0.00 in
03:12 38.8 °F 37.8 °F 30.42 in Calm     96% 0.00 in
03:17 38.7 °F 37.7 °F 30.42 in Calm     96% 0.00 in
03:22 38.6 °F 37.6 °F 30.41 in Calm     96% 0.00 in
03:27 38.5 °F 37.5 °F 30.41 in Calm     96% 0.00 in
03:32 38.6 °F 37.8 °F 30.41 in Calm     97% 0.00 in
03:37 38.6 °F 37.8 °F 30.41 in Calm     97% 0.00 in
03:42 38.6 °F 37.8 °F 30.41 in Calm     97% 0.00 in
03:47 38.5 °F 37.7 °F 30.41 in Calm     97% 0.00 in
03:52 38.3 °F 37.5 °F 30.41 in Calm     97% 0.00 in
03:57 38.1 °F 37.1 °F 30.41 in Calm     96% 0.00 in
04:02 38.0 °F 37.0 °F 30.40 in Calm     96% 0.00 in
04:07 38.3 °F 37.5 °F 30.40 in Calm     97% 0.00 in
04:12 38.3 °F 37.5 °F 30.40 in Calm     97% 0.00 in
04:17 38.1 °F 37.3 °F 30.40 in Calm     97% 0.00 in
04:22 37.9 °F 37.1 °F 30.40 in Calm     97% 0.00 in
04:27 37.9 °F 37.1 °F 30.40 in Calm     97% 0.00 in
04:33 37.7 °F 36.9 °F 30.41 in Calm     97% 0.00 in
04:38 37.6 °F 36.8 °F 30.41 in Calm     97% 0.00 in
04:43 37.5 °F 36.7 °F 30.42 in Calm     97% 0.00 in
04:48 37.8 °F 37.0 °F 30.42 in Calm     97% 0.00 in
04:53 38.0 °F 37.2 °F 30.43 in Calm     97% 0.00 in
04:58 38.0 °F 37.2 °F 30.43 in Calm   0.1 mph 97% 0.00 in
05:03 38.1 °F 37.3 °F 30.43 in Calm     97% 0.00 in
05:08 37.9 °F 37.1 °F 30.44 in Calm     97% 0.00 in
05:13 37.6 °F 36.8 °F 30.44 in Calm     97% 0.00 in
05:18 37.3 °F 36.3 °F 30.43 in Calm     96% 0.00 in
05:23 37.2 °F 36.2 °F 30.44 in Calm     96% 0.00 in
05:28 37.3 °F 36.5 °F 30.44 in Calm     97% 0.00 in
05:33 37.3 °F 36.5 °F 30.44 in Calm     97% 0.00 in
05:38 37.2 °F 36.4 °F 30.44 in Calm     97% 0.00 in
05:43 37.1 °F 36.3 °F 30.43 in Calm     97% 0.00 in
05:48 37.1 °F 36.3 °F 30.43 in Calm     97% 0.00 in
05:53 37.1 °F 36.3 °F 30.43 in Calm     97% 0.00 in
05:58 37.4 °F 36.6 °F 30.43 in Calm     97% 0.00 in
06:03 37.6 °F 36.8 °F 30.43 in Calm     97% 0.00 in
06:08 37.6 °F 36.8 °F 30.43 in Calm     97% 0.00 in
06:13 37.7 °F 36.9 °F 30.43 in Calm     97% 0.00 in
06:18 38.0 °F 37.2 °F 30.42 in Calm     97% 0.00 in
06:23 38.4 °F 37.6 °F 30.42 in Calm     97% 0.00 in
06:28 38.6 °F 38.1 °F 30.42 in Calm     98% 0.00 in
06:33 38.6 °F 37.8 °F 30.42 in Calm     97% 0.00 in
06:38 38.7 °F 37.9 °F 30.42 in Calm     97% 0.00 in
06:43 38.5 °F 37.7 °F 30.42 in Calm     97% 0.00 in
06:48 38.3 °F 37.5 °F 30.42 in Calm     97% 0.00 in
06:53 38.3 °F 37.5 °F 30.42 in Calm     97% 0.00 in
06:58 38.0 °F 37.2 °F 30.43 in Calm     97% 0.00 in
07:03 37.8 °F 37.0 °F 30.43 in Calm     97% 0.00 in
07:08 37.5 °F 36.7 °F 30.43 in Calm     97% 0.00 in
07:13 37.3 °F 36.5 °F 30.43 in Calm     97% 0.00 in
07:18 37.2 °F 36.4 °F 30.43 in Calm     97% 0.00 in
07:23 37.2 °F 36.4 °F 30.43 in Calm     97% 0.00 in
07:28 37.4 °F 36.6 °F 30.43 in Calm     97% 0.00 in
07:34 37.7 °F 36.9 °F 30.43 in Calm     97% 0.00 in
07:39 38.0 °F 37.2 °F 30.43 in Calm     97% 0.00 in
07:43 38.2 °F 37.4 °F 30.43 in Calm     97% 0.00 in
07:48 38.5 °F 38.0 °F 30.44 in Calm     98% 0.00 in
07:53 39.0 °F 38.5 °F 30.44 in Calm     98% 0.00 in
07:58 39.3 °F 38.8 °F 30.44 in Calm     98% 0.00 in
08:03 39.6 °F 39.1 °F 30.43 in Calm     98% 0.00 in
08:08 40.0 °F 39.5 °F 30.43 in Calm     98% 0.00 in
08:13 40.3 °F 39.8 °F 30.43 in Calm     98% 0.00 in
08:18 40.6 °F 40.1 °F 30.44 in Calm     98% 0.00 in
08:23 41.0 °F 40.5 °F 30.43 in Calm     98% 0.00 in
08:28 41.6 °F 41.1 °F 30.43 in Calm     98% 0.00 in
08:33 42.2 °F 41.7 °F 30.43 in Calm     98% 0.00 in
08:38 42.9 °F 42.4 °F 30.43 in Calm     98% 0.00 in
08:43 43.5 °F 43.0 °F 30.43 in Calm     98% 0.00 in
08:48 43.9 °F 43.4 °F 30.43 in Calm     98% 0.00 in
08:53 44.4 °F 43.9 °F 30.43 in Calm     98% 0.00 in
08:58 44.9 °F 44.4 °F 30.44 in Calm     98% 0.00 in
09:03 45.3 °F 44.8 °F 30.44 in Calm     98% 0.00 in
09:08 45.8 °F 45.3 °F 30.44 in WSW 1.1 mph   98% 0.00 in
09:13 46.2 °F 45.7 °F 30.44 in WSW 1.1 mph 1.1 mph 98% 0.00 in
09:18 46.5 °F 46.0 °F 30.44 in SW 1.1 mph 1.1 mph 98% 0.00 in
09:23 46.9 °F 46.4 °F 30.44 in SSW 1.1 mph   98% 0.00 in
09:28 47.2 °F 46.7 °F 30.44 in Calm     98% 0.00 in
09:34 47.9 °F 46.3 °F 30.45 in Calm   0.1 mph 94% 0.00 in
09:39 48.5 °F 45.7 °F 30.45 in Calm     90% 0.00 in
09:44 48.8 °F 46.0 °F 30.45 in Calm     90% 0.00 in
09:49 49.0 °F 45.9 °F 30.45 in Calm     89% 0.00 in
09:54 49.4 °F 45.7 °F 30.45 in Calm     87% 0.00 in
09:59 49.7 °F 46.0 °F 30.45 in NNW 1.1 mph 1.1 mph 87% 0.00 in
10:04 50.3 °F 46.0 °F 30.45 in NNW 1.1 mph 1.1 mph 85% 0.00 in
10:09 50.6 °F 45.9 °F 30.45 in NNW 1.1 mph 1.1 mph 84% 0.00 in
10:14 50.9 °F 45.9 °F 30.45 in NW 2.3 mph 2.3 mph 83% 0.00 in
10:19 51.1 °F 46.1 °F 30.45 in NW 1.1 mph 1.1 mph 83% 0.00 in
10:24 51.6 °F 46.3 °F 30.45 in North 1.1 mph 1.1 mph 82% 0.00 in
10:29 51.9 °F 46.3 °F 30.45 in NE 1.1 mph 1.1 mph 81% 0.00 in
10:34 52.1 °F 46.1 °F 30.44 in NNE 1.0 mph   80% 0.00 in
10:39 52.3 °F 46.3 °F 30.45 in SW 1.1 mph 1.1 mph 80% 0.00 in
10:44 52.7 °F 46.7 °F 30.44 in West 1.1 mph 1.1 mph 80% 0.00 in
10:49 53.2 °F 47.2 °F 30.44 in Calm     80% 0.00 in
10:54 53.6 °F 47.6 °F 30.44 in West 1.1 mph   80% 0.00 in
10:59 54.0 °F 48.3 °F 30.44 in WNW 1.1 mph 1.1 mph 81% 0.00 in
11:04 54.4 °F 47.7 °F 30.44 in WSW 3.5 mph 3.5 mph 78% 0.00 in
11:09 54.7 °F 48.3 °F 30.43 in NW 1.1 mph 1.1 mph 79% 0.00 in
11:14 55.1 °F 48.0 °F 30.43 in NNW 3.0 mph 3.0 mph 77% 0.00 in
11:19 55.4 °F 48.3 °F 30.43 in West 1.1 mph 1.1 mph 77% 0.00 in
11:24 55.9 °F 49.1 °F 30.43 in West 1.1 mph 1.1 mph 78% 0.00 in
11:29 56.3 °F 48.1 °F 30.43 in West 1.1 mph 1.1 mph 74% 0.00 in
11:34 56.6 °F 48.8 °F 30.42 in WNW 1.0 mph 1.0 mph 75% 0.00 in
11:39 56.8 °F 48.6 °F 30.42 in North 2.3 mph 2.3 mph 74% 0.00 in
11:44 57.1 °F 48.9 °F 30.42 in West 2.3 mph 2.3 mph 74% 0.00 in
11:49 57.5 °F 48.9 °F 30.42 in SE 1.0 mph 1.0 mph 73% 0.00 in
11:54 57.8 °F 48.8 °F 30.42 in NW 3.5 mph 3.5 mph 72% 0.00 in
11:59 58.1 °F 48.7 °F 30.41 in NNW 1.1 mph 1.1 mph 71% 0.00 in
12:04 58.2 °F 49.2 °F 30.41 in SSW 1.1 mph 1.1 mph 72% 0.00 in
12:09 58.4 °F 49.0 °F 30.40 in NW 2.3 mph 2.3 mph 71% 0.00 in
12:14 58.5 °F 49.1 °F 30.40 in NNW 2.3 mph 2.3 mph 71% 0.00 in
12:19 59.0 °F 48.8 °F 30.40 in WSW 2.3 mph 2.3 mph 69% 0.00 in
12:24 59.1 °F 49.3 °F 30.40 in North 3.0 mph 3.0 mph 70% 0.00 in
12:29 59.3 °F 48.7 °F 30.39 in South 2.3 mph 2.3 mph 68% 0.00 in
12:34 59.6 °F 49.4 °F 30.39 in NW 2.3 mph 2.3 mph 69% 0.00 in
12:39 59.7 °F 48.7 °F 30.39 in West 1.1 mph 1.1 mph 67% 0.00 in
12:44 60.1 °F 49.5 °F 30.38 in West 1.1 mph 1.1 mph 68% 0.00 in
12:49 60.7 °F 50.1 °F 30.38 in SSW 1.1 mph 1.1 mph 68% 0.00 in
12:54 61.0 °F 50.0 °F 30.38 in South 2.3 mph 2.3 mph 67% 0.00 in
12:59 61.3 °F 49.8 °F 30.38 in WNW 3.5 mph 3.5 mph 66% 0.00 in
13:04 61.1 °F 49.2 °F 30.37 in NW 3.5 mph 3.5 mph 65% 0.00 in
13:09 60.7 °F 49.3 °F 30.37 in WNW 1.1 mph 1.1 mph 66% 0.00 in
13:14 61.1 °F 49.2 °F 30.37 in WNW 1.1 mph 1.1 mph 65% 0.00 in
13:19 61.3 °F 50.2 °F 30.36 in NNW 1.1 mph 1.2 mph 67% 0.00 in
13:24 61.9 °F 49.6 °F 30.36 in WSW 1.1 mph 1.1 mph 64% 0.00 in
13:29 61.8 °F 49.5 °F 30.36 in West 1.1 mph 1.1 mph 64% 0.00 in
13:34 61.5 °F 49.6 °F 30.36 in South 1.1 mph 1.1 mph 65% 0.00 in
13:39 61.6 °F 49.3 °F 30.35 in West 1.1 mph   64% 0.00 in
13:44 62.2 °F 49.9 °F 30.35 in SSW 2.3 mph 2.3 mph 64% 0.00 in
13:49 62.3 °F 49.1 °F 30.35 in WSW 1.1 mph 1.1 mph 62% 0.00 in
13:54 62.6 °F 49.8 °F 30.35 in West 1.1 mph 1.1 mph 63% 0.00 in
13:59 62.6 °F 49.4 °F 30.35 in NNW 2.3 mph 2.3 mph 62% 0.00 in
14:04 62.7 °F 49.1 °F 30.35 in SW 3.5 mph 3.5 mph 61% 0.00 in
14:09 62.7 °F 49.1 °F 30.34 in NW 2.3 mph   61% 0.00 in
14:14 63.0 °F 48.9 °F 30.34 in North 1.1 mph 1.1 mph 60% 0.00 in
14:19 63.1 °F 48.5 °F 30.34 in West 2.3 mph 2.3 mph 59% 0.00 in
14:24 63.1 °F 48.5 °F 30.34 in NE 1.0 mph 1.0 mph 59% 0.00 in
14:29 63.2 °F 49.1 °F 30.34 in ESE 3.5 mph 3.5 mph 60% 0.00 in
14:34 63.2 °F 49.1 °F 30.34 in SSW 2.3 mph 2.3 mph 60% 0.00 in
14:39 63.0 °F 49.3 °F 30.34 in West 2.3 mph 2.3 mph 61% 0.00 in
14:44 62.9 °F 49.7 °F 30.34 in WSW 1.1 mph 1.1 mph 62% 0.00 in
14:49 63.0 °F 49.8 °F 30.34 in SW 4.0 mph 4.0 mph 62% 0.00 in
14:54 63.0 °F 48.9 °F 30.34 in South 2.3 mph 2.3 mph 60% 0.00 in
14:59 62.8 °F 49.1 °F 30.34 in SSW 1.1 mph   61% 0.00 in
15:04 62.6 °F 49.8 °F 30.34 in North 3.5 mph 3.5 mph 63% 0.00 in
15:09 62.6 °F 50.2 °F 30.34 in WNW 4.0 mph 4.0 mph 64% 0.00 in
15:14 62.4 °F 50.1 °F 30.34 in West 3.5 mph 3.5 mph 64% 0.00 in
15:19 62.2 °F 49.9 °F 30.34 in WNW 3.0 mph 3.0 mph 64% 0.00 in
15:24 62.0 °F 50.1 °F 30.34 in SSW 2.3 mph 2.3 mph 65% 0.00 in
15:29 62.0 °F 50.5 °F 30.34 in WNW 3.5 mph 3.5 mph 66% 0.00 in
15:34 61.7 °F 50.2 °F 30.34 in West 3.5 mph 3.5 mph 66% 0.00 in
15:39 61.5 °F 50.0 °F 30.34 in WNW 2.3 mph 2.3 mph 66% 0.00 in
15:44 61.3 °F 50.6 °F 30.34 in NNW 1.1 mph 1.1 mph 68% 0.00 in
15:49 60.8 °F 50.2 °F 30.34 in West 2.3 mph 2.3 mph 68% 0.00 in
15:54 60.3 °F 50.1 °F 30.34 in WSW 1.0 mph 1.0 mph 69% 0.00 in
15:59 60.2 °F 50.4 °F 30.34 in NNW 1.1 mph 1.1 mph 70% 0.00 in
16:05 60.0 °F 50.2 °F 30.34 in South 1.1 mph 1.1 mph 70% 0.00 in
16:10 59.7 °F 49.9 °F 30.34 in West 1.1 mph 1.1 mph 70% 0.00 in
16:15 59.4 °F 49.6 °F 30.34 in SE 1.1 mph 1.1 mph 70% 0.00 in
16:20 58.9 °F 49.9 °F 30.34 in WNW 2.3 mph 2.3 mph 72% 0.00 in
16:25 58.6 °F 50.0 °F 30.34 in West 1.1 mph 1.1 mph 73% 0.00 in
16:30 58.3 °F 49.7 °F 30.34 in WNW 2.3 mph 2.3 mph 73% 0.00 in
16:35 58.0 °F 49.8 °F 30.34 in WNW 1.1 mph 1.1 mph 74% 0.00 in
16:40 57.7 °F 49.8 °F 30.34 in Calm     75% 0.00 in
16:45 57.5 °F 49.6 °F 30.34 in Calm     75% 0.00 in
16:50 57.3 °F 49.8 °F 30.34 in West 1.1 mph 1.1 mph 76% 0.00 in
16:55 57.0 °F 49.5 °F 30.34 in Calm     76% 0.00 in
17:00 56.7 °F 49.6 °F 30.33 in Calm     77% 0.00 in
17:05 56.4 °F 49.3 °F 30.33 in Calm     77% 0.00 in
17:10 56.2 °F 49.4 °F 30.33 in West 1.1 mph   78% 0.00 in
17:15 56.0 °F 49.2 °F 30.34 in Calm     78% 0.00 in
17:20 55.7 °F 49.3 °F 30.34 in NNW 1.1 mph   79% 0.00 in
17:25 55.3 °F 48.9 °F 30.34 in Calm     79% 0.00 in
17:30 55.0 °F 48.9 °F 30.34 in Calm     80% 0.00 in
17:35 54.6 °F 48.9 °F 30.34 in Calm     81% 0.00 in
17:40 54.3 °F 48.9 °F 30.34 in Calm     82% 0.00 in
17:45 53.9 °F 48.5 °F 30.34 in Calm     82% 0.00 in
17:50 53.6 °F 48.6 °F 30.34 in Calm     83% 0.00 in
17:55 53.3 °F 48.3 °F 30.34 in Calm     83% 0.00 in
18:00 53.1 °F 48.4 °F 30.34 in Calm     84% 0.00 in
18:05 52.9 °F 48.2 °F 30.35 in Calm     84% 0.00 in
18:10 52.8 °F 48.1 °F 30.35 in Calm     84% 0.00 in
18:15 52.6 °F 48.2 °F 30.35 in Calm     85% 0.00 in
18:20 52.4 °F 48.0 °F 30.35 in Calm     85% 0.00 in
18:25 52.2 °F 48.1 °F 30.35 in Calm     86% 0.00 in
18:30 52.1 °F 48.0 °F 30.35 in Calm     86% 0.00 in
18:35 52.0 °F 47.9 °F 30.35 in Calm     86% 0.00 in
18:40 51.8 °F 48.1 °F 30.35 in Calm     87% 0.00 in
18:45 51.8 °F 48.1 °F 30.35 in Calm     87% 0.00 in
18:50 51.7 °F 48.0 °F 30.35 in Calm     87% 0.00 in
18:55 51.4 °F 47.4 °F 30.35 in Calm     86% 0.00 in
19:00 50.9 °F 46.9 °F 30.35 in Calm     86% 0.00 in
19:05 50.5 °F 47.1 °F 30.35 in Calm     88% 0.00 in
19:10 50.2 °F 46.8 °F 30.36 in Calm     88% 0.00 in
19:15 49.8 °F 46.7 °F 30.36 in Calm     89% 0.00 in
19:20 49.4 °F 46.3 °F 30.36 in Calm     89% 0.00 in
19:25 49.3 °F 46.5 °F 30.36 in Calm     90% 0.00 in
19:30 49.0 °F 46.2 °F 30.36 in Calm     90% 0.00 in
19:35 48.7 °F 45.9 °F 30.35 in Calm     90% 0.00 in
19:36 48.6 °F 45.8 °F 30.35 in Calm     90% 0.00 in
19:41 48.4 °F 45.9 °F 30.35 in Calm     91% 0.00 in
19:46 48.1 °F 45.6 °F 30.35 in Calm     91% 0.00 in
19:51 47.9 °F 45.4 °F 30.35 in Calm     91% 0.00 in
19:56 47.5 °F 45.0 °F 30.35 in Calm     91% 0.00 in
20:01 47.2 °F 44.7 °F 30.35 in Calm     91% 0.00 in
20:06 47.0 °F 44.8 °F 30.35 in Calm     92% 0.00 in
20:11 47.2 °F 45.3 °F 30.35 in Calm     93% 0.00 in
20:16 47.9 °F 46.3 °F 30.36 in Calm     94% 0.00 in
20:21 48.1 °F 46.2 °F 30.35 in Calm     93% 0.00 in
20:26 47.7 °F 45.5 °F 30.35 in Calm     92% 0.00 in
20:31 47.3 °F 45.1 °F 30.35 in Calm     92% 0.00 in
20:36 47.0 °F 44.8 °F 30.35 in Calm     92% 0.00 in
20:41 46.7 °F 44.5 °F 30.35 in Calm     92% 0.00 in
20:46 46.5 °F 44.6 °F 30.35 in Calm     93% 0.00 in
20:51 46.4 °F 44.5 °F 30.35 in Calm     93% 0.00 in
20:56 46.2 °F 44.3 °F 30.35 in Calm     93% 0.00 in
21:00 46.1 °F 44.2 °F 30.35 in Calm     93% 0.00 in
21:01 46.0 °F 44.1 °F 30.35 in Calm     93% 0.00 in
21:06 45.8 °F 43.9 °F 30.35 in Calm     93% 0.00 in
21:11 45.6 °F 43.7 °F 30.35 in Calm     93% 0.00 in
21:16 45.6 °F 44.0 °F 30.35 in Calm     94% 0.00 in
21:21 45.5 °F 43.6 °F 30.35 in Calm     93% 0.00 in
21:26 45.6 °F 44.0 °F 30.35 in Calm     94% 0.00 in
21:31 45.9 °F 44.5 °F 30.35 in Calm     95% 0.00 in
21:36 46.1 °F 44.7 °F 30.35 in Calm     95% 0.00 in
21:41 46.4 °F 45.3 °F 30.35 in Calm     96% 0.00 in
21:46 46.4 °F 45.0 °F 30.35 in Calm     95% 0.00 in
21:51 46.3 °F 44.9 °F 30.35 in Calm     95% 0.00 in
21:56 46.1 °F 44.7 °F 30.35 in Calm     95% 0.00 in
22:01 46.0 °F 44.6 °F 30.35 in Calm     95% 0.00 in
22:06 45.7 °F 44.1 °F 30.35 in Calm     94% 0.00 in
22:11 45.3 °F 43.7 °F 30.35 in Calm     94% 0.00 in
22:16 45.1 °F 43.5 °F 30.35 in Calm     94% 0.00 in
22:21 45.0 °F 43.7 °F 30.35 in Calm     95% 0.00 in
22:26 44.8 °F 43.5 °F 30.34 in Calm     95% 0.00 in
22:31 44.7 °F 43.4 °F 30.34 in Calm     95% 0.00 in
22:36 44.5 °F 43.2 °F 30.34 in Calm     95% 0.00 in
22:41 44.3 °F 43.0 °F 30.34 in Calm     95% 0.00 in
22:46 44.1 °F 42.5 °F 30.35 in Calm     94% 0.00 in
22:51 43.9 °F 42.6 °F 30.35 in Calm     95% 0.00 in
22:56 43.7 °F 42.4 °F 30.35 in Calm     95% 0.00 in
23:01 43.5 °F 42.2 °F 30.35 in Calm     95% 0.00 in
23:06 43.4 °F 42.1 °F 30.35 in Calm     95% 0.00 in
23:11 43.2 °F 41.9 °F 30.35 in Calm     95% 0.00 in
23:16 43.0 °F 41.7 °F 30.35 in Calm     95% 0.00 in
23:21 43.4 °F 42.3 °F 30.35 in Calm     96% 0.00 in
23:26 43.5 °F 42.2 °F 30.35 in Calm     95% 0.00 in
23:31 43.3 °F 42.0 °F 30.35 in Calm     95% 0.00 in
23:36 43.3 °F 42.0 °F 30.35 in Calm     95% 0.00 in
23:41 43.2 °F 41.9 °F 30.36 in Calm     95% 0.00 in
23:46 43.2 °F 41.9 °F 30.36 in Calm     95% 0.00 in
23:51 42.9 °F 41.6 °F 30.35 in Calm     95% 0.00 in
23:56 42.7 °F 41.4 °F 30.35 in Calm     95% 0.00 in
Compliments of Weather Underground